Time;durP1;ratioP1;P1;durP2;ratioP2;P2;SDS_P1;SDS_P2;PMS_P1;PMS_P2;Temp;Humidity;BMP_temperature;BMP_pressure;BME280_temperature;BME280_humidity;BME280_pressure;Samples;Min_cycle;Max_cycle;Signal;HPM_P1;HPM_P2
2023/02/26 00:00:26;;;;;;;2.97;0.30;;;8.80;67.40;;;;;;6242148;23;20014;-77
2023/02/26 00:02:52;;;;;;;0.30;0.20;;;8.80;67.30;;;;;;6242763;23;20008;-78
2023/02/26 00:05:17;;;;;;;2.30;0.10;;;8.70;67.40;;;;;;6245212;23;20011;-78
2023/02/26 00:07:43;;;;;;;1.90;0.10;;;8.70;67.60;;;;;;6245324;23;20019;-76
2023/02/26 00:10:12;;;;;;;2.63;0.10;;;8.70;68.10;;;;;;6245168;23;20403;-78
2023/02/26 00:12:38;;;;;;;2.43;0.20;;;8.70;67.50;;;;;;6245192;23;20054;-77
2023/02/26 00:15:05;;;;;;;2.27;0.10;;;8.60;66.80;;;;;;6246856;23;20088;-78
2023/02/26 00:17:47;;;;;;;0.83;0.03;;;8.60;66.90;;;;;;6247257;23;19996;-77
2023/02/26 00:20:15;;;;;;;5.68;0.20;;;8.60;67.10;;;;;;6247345;23;20075;-77
2023/02/26 00:22:41;;;;;;;0.13;0.03;;;8.50;67.20;;;;;;6246405;23;20075;-77
2023/02/26 00:25:08;;;;;;;1.07;0.10;;;8.50;66.40;;;;;;6243794;23;20496;-77
2023/02/26 00:27:34;;;;;;;2.27;0.10;;;8.50;67.20;;;;;;6243875;23;20438;-76
2023/02/26 00:30:01;;;;;;;0.93;0.03;;;8.40;66.50;;;;;;6245152;23;20399;-75
2023/02/26 00:32:27;;;;;;;3.70;0.10;;;8.40;66.80;;;;;;6247096;23;20434;-78
2023/02/26 00:34:54;;;;;;;5.33;0.07;;;8.40;66.60;;;;;;6246993;23;20248;-77
2023/02/26 00:37:45;;;;;;;0.43;0.10;;;8.40;66.50;;;;;;6247346;23;20001;-77
2023/02/26 00:40:30;;;;;;;0.00;0.00;;;8.40;66.70;;;;;;6247361;23;20000;-78
2023/02/26 00:42:56;;;;;;;3.93;0.10;;;8.40;66.60;;;;;;6247235;23;20000;-78
2023/02/26 00:45:22;;;;;;;4.70;0.10;;;8.40;67.20;;;;;;6246916;23;20419;-78
2023/02/26 00:48:03;;;;;;;0.10;0.10;;;8.30;67.20;;;;;;6246865;22;20016;-74
2023/02/26 00:50:29;;;;;;;0.77;0.07;;;8.30;67.60;;;;;;6247128;23;20011;-78
2023/02/26 00:53:24;;;;;;;0.87;0.13;;;8.30;67.30;;;;;;6246574;23;20000;-76
2023/02/26 00:55:49;;;;;;;0.00;0.00;;;8.20;67.00;;;;;;6230614;23;20004;-75
2023/02/26 00:58:15;;;;;;;3.53;0.10;;;8.20;66.80;;;;;;6220420;23;20015;-78
2023/02/26 01:00:41;;;;;;;1.83;0.10;;;8.20;67.10;;;;;;6246647;23;20024;-76
2023/02/26 01:03:07;;;;;;;0.00;0.00;;;8.10;67.50;;;;;;6247257;23;20062;-77
2023/02/26 01:05:33;;;;;;;1.07;0.10;;;8.10;68.00;;;;;;6246833;23;20249;-76
2023/02/26 01:08:18;;;;;;;0.33;0.00;;;8.00;68.10;;;;;;6246827;23;20004;-77
2023/02/26 01:10:44;;;;;;;0.10;0.10;;;8.00;68.40;;;;;;6246974;23;20037;-77
2023/02/26 01:13:11;;;;;;;0.77;0.10;;;8.00;68.80;;;;;;6246766;23;20000;-76
2023/02/26 01:15:37;;;;;;;2.33;0.10;;;7.90;68.80;;;;;;6246569;23;20319;-77
2023/02/26 01:18:13;;;;;;;0.67;0.33;;;7.90;67.90;;;;;;6246848;23;20460;-78
2023/02/26 01:20:49;;;;;;;2.23;0.00;;;8.00;68.00;;;;;;6219686;23;20000;-77
2023/02/26 01:23:26;;;;;;;0.70;0.10;;;7.90;67.60;;;;;;6246496;23;20121;-77
2023/02/26 01:26:02;;;;;;;0.47;0.10;;;7.90;68.60;;;;;;6246570;23;20331;-77
2023/02/26 01:28:28;;;;;;;0.30;0.20;;;7.90;68.30;;;;;;6247029;23;20004;-78
2023/02/26 01:31:01;;;;;;;1.90;0.00;;;7.90;68.40;;;;;;6246403;23;20011;-75
2023/02/26 01:33:41;;;;;;;2.90;0.20;;;7.90;68.50;;;;;;6246757;23;20068;-78
2023/02/26 01:36:19;;;;;;;0.10;0.10;;;7.90;67.70;;;;;;6246659;23;20027;-78
2023/02/26 01:39:17;;;;;;;0.07;0.00;;;7.80;67.60;;;;;;6246455;23;20000;-74
2023/02/26 01:41:47;;;;;;;0.30;0.00;;;7.80;66.90;;;;;;6205920;23;20369;-76
2023/02/26 01:44:41;;;;;;;2.00;0.07;;;7.80;67.60;;;;;;6246607;23;20508;-76
2023/02/26 01:47:35;;;;;;;0.00;0.00;;;7.80;68.00;;;;;;6245920;23;20034;-78
2023/02/26 01:50:15;;;;;;;0.13;0.07;;;7.90;66.90;;;;;;6199927;23;20077;-77
2023/02/26 01:53:20;;;;;;;0.00;0.00;;;7.90;66.00;;;;;;6245921;23;20011;-76
2023/02/26 01:55:55;;;;;;;4.03;0.30;;;7.90;65.70;;;;;;6243783;23;20080;-75
2023/02/26 01:58:23;;;;;;;2.83;0.20;;;7.90;65.80;;;;;;6219926;23;20008;-75
2023/02/26 02:00:49;;;;;;;0.40;0.17;;;7.90;66.00;;;;;;6246311;23;20368;-78
2023/02/26 02:03:15;;;;;;;0.30;0.10;;;7.90;64.90;;;;;;6246473;23;20027;-78
2023/02/26 02:05:43;;;;;;;0.93;0.10;;;7.90;65.50;;;;;;6246001;23;19996;-77
2023/02/26 02:08:10;;;;;;;0.20;0.10;;;7.90;64.60;;;;;;6246136;23;20509;-79
2023/02/26 02:10:39;;;;;;;0.77;0.20;;;7.90;65.20;;;;;;6246537;23;20035;-78
2023/02/26 02:13:39;;;;;;;0.20;0.00;;;7.90;64.40;;;;;;6246507;23;20030;-77
2023/02/26 02:16:14;;;;;;;0.67;0.10;;;7.90;64.20;;;;;;6245869;23;20007;-77
2023/02/26 02:18:48;;;;;;;0.10;0.10;;;7.90;63.40;;;;;;6246092;23;20431;-77
2023/02/26 02:21:17;;;;;;;0.10;0.10;;;7.90;63.80;;;;;;6246038;23;20007;-78
2023/02/26 02:24:13;;;;;;;0.23;0.10;;;7.90;63.50;;;;;;6245849;23;20015;-78
2023/02/26 02:27:03;;;;;;;0.10;0.10;;;7.90;63.50;;;;;;6245727;23;20016;-78
2023/02/26 02:29:54;;;;;;;0.57;0.20;;;7.90;62.90;;;;;;6219238;23;20424;-78
2023/02/26 02:32:35;;;;;;;0.37;0.07;;;8.00;62.90;;;;;;6246087;23;20005;-78
2023/02/26 02:35:45;;;;;;;0.10;0.10;;;8.00;62.90;;;;;;6246157;23;20375;-78
2023/02/26 02:38:18;;;;;;;2.93;0.10;;;8.00;62.60;;;;;;6214476;23;20005;-78
2023/02/26 02:40:46;;;;;;;;;;;8.00;62.80;;;;;;6219852;23;20004;-78
2023/02/26 02:43:22;;;;;;;0.10;0.10;;;8.00;62.90;;;;;;6246271;23;19900;-77
2023/02/26 02:45:51;;;;;;;5.10;0.20;;;8.00;62.80;;;;;;6245737;23;20067;-75
2023/02/26 02:48:27;;;;;;;2.10;0.27;;;8.00;63.00;;;;;;6245521;23;20016;-78
2023/02/26 02:51:21;;;;;;;0.20;0.10;;;8.00;61.90;;;;;;6246121;23;20365;-78
2023/02/26 02:54:01;;;;;;;0.13;0.07;;;8.00;62.50;;;;;;6218634;23;20004;-78
2023/02/26 02:56:36;;;;;;;0.67;0.10;;;8.00;62.40;;;;;;6246038;23;20005;-77
2023/02/26 02:59:48;;;;;;;3.70;0.10;;;8.00;61.80;;;;;;6245892;23;20500;-77
2023/02/26 03:02:43;;;;;;;0.40;0.10;;;8.10;61.50;;;;;;6178702;23;20004;-76
2023/02/26 03:05:08;;;;;;;0.30;0.10;;;8.10;61.00;;;;;;6225042;23;20091;-77
2023/02/26 03:07:46;;;;;;;2.27;0.00;;;8.10;61.90;;;;;;6245516;23;20049;-78
2023/02/26 03:10:13;;;;;;;0.10;0.00;;;8.10;61.80;;;;;;6245525;23;20026;-77
2023/02/26 03:12:38;;;;;;;0.53;0.20;;;8.10;61.50;;;;;;6245177;23;20000;-78
2023/02/26 03:15:04;;;;;;;0.10;0.10;;;8.10;60.20;;;;;;6245147;23;20000;-74
2023/02/26 03:17:47;;;;;;;0.30;0.07;;;8.10;60.50;;;;;;6245604;23;20004;-78
2023/02/26 03:20:26;;;;;;;0.25;0.10;;;8.10;60.10;;;;;;6246403;23;20326;-78
2023/02/26 03:23:00;;;;;;;0.20;0.10;;;8.10;61.20;;;;;;6245436;23;20075;-77
2023/02/26 03:25:32;;;;;;;0.23;0.10;;;8.20;61.40;;;;;;6245486;23;20004;-75
2023/02/26 03:28:19;;;;;;;0.77;0.10;;;8.20;61.00;;;;;;6245323;23;20016;-76
2023/02/26 03:31:01;;;;;;;0.60;0.10;;;8.20;61.10;;;;;;6218669;23;20011;-76
2023/02/26 03:33:44;;;;;;;0.85;0.10;;;8.20;60.70;;;;;;6245835;23;20091;-75
2023/02/26 03:36:21;;;;;;;0.10;0.10;;;8.20;60.30;;;;;;6245848;23;20427;-77
2023/02/26 03:38:50;;;;;;;0.87;0.10;;;8.20;60.90;;;;;;6245594;23;20004;-77
2023/02/26 03:41:44;;;;;;;1.30;0.10;;;8.10;61.20;;;;;;6245484;23;20027;-72
2023/02/26 03:44:29;;;;;;;0.17;0.10;;;8.20;61.50;;;;;;6234170;23;20439;-77
2023/02/26 03:46:59;;;;;;;0.20;0.10;;;8.20;61.20;;;;;;6244991;23;20423;-77
2023/02/26 03:49:40;;;;;;;0.10;0.10;;;8.10;60.00;;;;;;6245389;23;20004;-77
2023/02/26 03:52:06;;;;;;;0.50;0.10;;;8.10;60.10;;;;;;6245336;23;20007;-75
2023/02/26 03:54:41;;;;;;;0.00;0.00;;;8.10;60.40;;;;;;6245597;23;20000;-77
2023/02/26 03:57:07;;;;;;;0.00;0.00;;;8.10;61.00;;;;;;6245373;23;20000;-77
2023/02/26 03:59:33;;;;;;;0.27;0.10;;;8.10;61.50;;;;;;6245591;23;20042;-77
2023/02/26 04:02:12;;;;;;;0.10;0.10;;;8.10;61.50;;;;;;6245563;23;20084;-77
2023/02/26 04:04:50;;;;;;;0.87;0.10;;;8.10;62.30;;;;;;6245506;23;20000;-77
2023/02/26 04:07:18;;;;;;;0.67;0.20;;;8.10;62.90;;;;;;6245590;23;20035;-75
2023/02/26 04:09:47;;;;;;;0.10;0.10;;;8.10;62.70;;;;;;6245367;23;20000;-75
2023/02/26 04:12:13;;;;;;;0.30;0.10;;;8.10;62.90;;;;;;6245452;23;20012;-77
2023/02/26 04:14:38;;;;;;;0.37;0.10;;;8.10;62.40;;;;;;6245592;23;20000;-76
2023/02/26 04:17:04;;;;;;;0.60;0.20;;;8.10;62.20;;;;;;6244994;23;20004;-74
2023/02/26 04:19:30;;;;;;;0.23;0.10;;;8.10;60.20;;;;;;6245393;23;20374;-77
2023/02/26 04:21:56;;;;;;;0.07;0.07;;;8.10;60.30;;;;;;6245493;23;20004;-77
2023/02/26 04:24:22;;;;;;;3.63;0.13;;;8.20;59.80;;;;;;6245299;23;20039;-77
2023/02/26 04:26:48;;;;;;;0.13;0.10;;;8.10;60.10;;;;;;6245447;23;20012;-76
2023/02/26 04:29:14;;;;;;;0.00;0.00;;;8.10;60.40;;;;;;6242234;23;20040;-75
2023/02/26 04:31:40;;;;;;;2.33;0.10;;;8.10;60.70;;;;;;6241923;23;20001;-75
2023/02/26 04:34:06;;;;;;;0.17;0.10;;;8.10;60.80;;;;;;6244523;23;20000;-77
2023/02/26 04:36:32;;;;;;;0.10;0.00;;;8.10;60.70;;;;;;6245186;23;20013;-77
2023/02/26 04:38:58;;;;;;;0.10;0.00;;;8.10;61.30;;;;;;6245356;23;20079;-78
2023/02/26 04:41:23;;;;;;;0.10;0.00;;;8.10;61.20;;;;;;6245496;23;20443;-78
2023/02/26 04:43:49;;;;;;;1.90;0.00;;;8.10;61.40;;;;;;6245605;23;20420;-78
2023/02/26 04:46:15;;;;;;;0.40;0.10;;;8.10;61.90;;;;;;6245032;23;20390;-77
2023/02/26 04:48:40;;;;;;;0.20;0.10;;;8.10;61.40;;;;;;6245175;23;20083;-77
2023/02/26 04:51:06;;;;;;;0.10;0.10;;;8.10;61.10;;;;;;6245328;23;20004;-78
2023/02/26 04:53:32;;;;;;;0.33;0.03;;;8.00;61.60;;;;;;6242782;23;20457;-77
2023/02/26 04:55:58;;;;;;;0.00;0.00;;;8.00;61.40;;;;;;6241897;23;20000;-73
2023/02/26 04:58:23;;;;;;;0.10;0.00;;;8.00;61.50;;;;;;6241848;23;20043;-78
2023/02/26 05:00:50;;;;;;;0.10;0.00;;;8.00;62.40;;;;;;6245856;23;20079;-77
2023/02/26 05:03:17;;;;;;;0.10;0.10;;;8.00;62.20;;;;;;6247181;23;20031;-78
2023/02/26 05:05:43;;;;;;;0.50;0.10;;;8.00;62.20;;;;;;6246828;23;20066;-78
2023/02/26 05:08:09;;;;;;;0.77;0.10;;;8.00;62.00;;;;;;6246666;23;20008;-78
2023/02/26 05:10:35;;;;;;;0.30;0.10;;;8.00;60.80;;;;;;6246980;23;20007;-76
2023/02/26 05:13:00;;;;;;;0.00;0.00;;;8.10;60.60;;;;;;6246710;23;20004;-77
2023/02/26 05:15:26;;;;;;;0.00;0.00;;;8.00;61.00;;;;;;6246590;23;20033;-77
2023/02/26 05:17:52;;;;;;;0.90;0.20;;;8.10;61.10;;;;;;6246840;23;20008;-77
2023/02/26 05:20:17;;;;;;;0.57;0.20;;;8.00;61.00;;;;;;6246894;23;20000;-78
2023/02/26 05:22:43;;;;;;;0.20;0.10;;;8.00;61.40;;;;;;6246719;23;20008;-78
2023/02/26 05:25:13;;;;;;;0.73;0.10;;;8.00;61.60;;;;;;6246939;23;20007;-76
2023/02/26 05:27:41;;;;;;;0.13;0.10;;;7.90;61.00;;;;;;6246906;23;20465;-76
2023/02/26 05:30:08;;;;;;;1.10;0.20;;;7.90;61.20;;;;;;6246921;23;20308;-77
2023/02/26 05:32:34;;;;;;;0.00;0.00;;;7.90;61.70;;;;;;6246447;23;20050;-77
2023/02/26 05:34:59;;;;;;;0.70;0.07;;;7.90;61.90;;;;;;6246633;23;20390;-76
2023/02/26 05:37:25;;;;;;;0.30;0.10;;;7.90;62.20;;;;;;6246800;23;20007;-77
2023/02/26 05:39:51;;;;;;;0.00;0.00;;;7.90;62.00;;;;;;6246870;23;20005;-77
2023/02/26 05:42:16;;;;;;;0.07;0.07;;;7.90;61.90;;;;;;6246624;23;20449;-76
2023/02/26 05:44:42;;;;;;;0.30;0.10;;;7.90;61.80;;;;;;6246567;23;20007;-77
2023/02/26 05:47:08;;;;;;;0.20;0.10;;;7.90;61.90;;;;;;6245842;23;20031;-78
2023/02/26 05:49:33;;;;;;;0.10;0.10;;;7.80;62.00;;;;;;6246550;23;20071;-75
2023/02/26 05:51:59;;;;;;;0.07;0.07;;;7.80;62.40;;;;;;6246447;23;20004;-77
2023/02/26 05:54:25;;;;;;;0.10;0.07;;;7.80;62.10;;;;;;6246006;23;19997;-77
2023/02/26 05:56:51;;;;;;;2.00;0.00;;;7.80;61.90;;;;;;6246356;23;20008;-76
2023/02/26 05:59:16;;;;;;;0.27;0.00;;;7.80;61.90;;;;;;6246740;23;19996;-77
2023/02/26 06:01:42;;;;;;;0.10;0.10;;;7.80;61.90;;;;;;6245996;23;20008;-73
2023/02/26 06:04:09;;;;;;;0.17;0.10;;;7.70;61.60;;;;;;6246637;23;20004;-76
2023/02/26 06:06:34;;;;;;;0.10;0.10;;;7.80;61.50;;;;;;6246835;23;20096;-75
2023/02/26 06:09:01;;;;;;;0.00;0.00;;;7.80;61.30;;;;;;6246283;23;20377;-77
2023/02/26 06:11:28;;;;;;;0.10;0.00;;;7.80;61.20;;;;;;6246542;23;20423;-77
2023/02/26 06:13:54;;;;;;;0.10;0.10;;;7.80;60.50;;;;;;6246105;23;20000;-76
2023/02/26 06:16:19;;;;;;;0.40;0.20;;;7.70;60.70;;;;;;6245658;23;20004;-76
2023/02/26 06:18:46;;;;;;;0.10;0.10;;;7.70;60.70;;;;;;6246006;23;20031;-76
2023/02/26 06:21:12;;;;;;;0.53;0.20;;;7.70;60.70;;;;;;6246363;23;20004;-76
2023/02/26 06:23:37;;;;;;;0.70;0.20;;;7.70;61.20;;;;;;6245996;23;20023;-75
2023/02/26 06:26:04;;;;;;;0.23;0.20;;;7.60;61.50;;;;;;6219151;23;20012;-77
2023/02/26 06:28:30;;;;;;;0.33;0.20;;;7.70;61.10;;;;;;6245933;23;20000;-76
2023/02/26 06:30:55;;;;;;;0.20;0.10;;;7.70;59.80;;;;;;6246052;23;20076;-76
2023/02/26 06:33:21;;;;;;;1.10;0.10;;;7.60;59.80;;;;;;6246053;23;20002;-77
2023/02/26 06:35:48;;;;;;;0.30;0.20;;;7.60;60.40;;;;;;6246193;23;20442;-79
2023/02/26 06:38:13;;;;;;;0.33;0.20;;;7.60;61.10;;;;;;6219288;23;20008;-77
2023/02/26 06:40:39;;;;;;;0.50;0.20;;;7.50;59.90;;;;;;6245783;23;20434;-75
2023/02/26 06:43:05;;;;;;;0.50;0.30;;;7.50;60.20;;;;;;6246035;23;20004;-74
2023/02/26 06:45:30;;;;;;;0.10;0.10;;;7.50;60.30;;;;;;6245970;23;20054;-78
2023/02/26 06:47:56;;;;;;;0.37;0.20;;;7.50;60.30;;;;;;6218451;23;20020;-73
2023/02/26 06:50:22;;;;;;;0.10;0.00;;;7.50;60.60;;;;;;6218443;23;20012;-71
2023/02/26 06:52:47;;;;;;;0.10;0.10;;;7.50;61.30;;;;;;6245312;23;20039;-76
2023/02/26 06:55:13;;;;;;;0.10;0.10;;;7.50;61.50;;;;;;6245555;23;20026;-75
2023/02/26 06:57:39;;;;;;;1.07;0.10;;;7.50;60.80;;;;;;6245032;23;20042;-75
2023/02/26 07:00:06;;;;;;;0.40;0.20;;;7.50;59.40;;;;;;6218088;23;20027;-78
2023/02/26 07:02:32;;;;;;;0.40;0.10;;;7.60;58.80;;;;;;6245220;23;20004;-73
2023/02/26 07:04:58;;;;;;;0.40;0.20;;;7.50;58.50;;;;;;6245098;23;20000;-76
2023/02/26 07:07:24;;;;;;;0.10;0.10;;;7.50;58.60;;;;;;6245095;23;20027;-78
2023/02/26 07:09:50;;;;;;;0.23;0.10;;;7.50;58.40;;;;;;6245196;23;20049;-79
2023/02/26 07:12:15;;;;;;;0.40;0.17;;;7.50;59.10;;;;;;6245265;23;20011;-77
2023/02/26 07:14:42;;;;;;;0.30;0.10;;;7.50;58.70;;;;;;6244959;23;19996;-77
2023/02/26 07:17:08;;;;;;;0.30;0.10;;;7.50;58.20;;;;;;6245417;23;20008;-79
2023/02/26 07:19:34;;;;;;;0.87;0.20;;;7.50;58.20;;;;;;6218164;23;20446;-76
2023/02/26 07:22:00;;;;;;;0.90;0.20;;;7.50;57.90;;;;;;6218184;23;20004;-79
2023/02/26 07:24:26;;;;;;;0.40;0.10;;;7.50;57.80;;;;;;6244683;23;20437;-76
2023/02/26 07:26:52;;;;;;;2.90;0.10;;;7.50;57.50;;;;;;6245102;23;20526;-75
2023/02/26 07:29:19;;;;;;;0.23;0.10;;;7.60;57.00;;;;;;6244631;23;20038;-78
2023/02/26 07:31:44;;;;;;;3.60;0.20;;;7.60;57.00;;;;;;6244350;23;20442;-79
2023/02/26 07:34:10;;;;;;;1.10;0.20;;;7.60;57.50;;;;;;6245373;23;20003;-75
2023/02/26 07:36:35;;;;;;;3.30;0.20;;;7.50;57.40;;;;;;6245159;23;20001;-77
2023/02/26 07:39:01;;;;;;;0.90;0.23;;;7.50;57.60;;;;;;6243256;23;20003;-80
2023/02/26 07:41:27;;;;;;;1.23;0.30;;;7.50;58.00;;;;;;6242024;23;20089;-80
2023/02/26 07:43:52;;;;;;;0.30;0.20;;;7.50;57.60;;;;;;6242005;23;20007;-75
2023/02/26 07:46:18;;;;;;;0.50;0.20;;;7.50;57.40;;;;;;6243398;23;20019;-79
2023/02/26 07:48:44;;;;;;;1.07;0.20;;;7.50;57.40;;;;;;6242175;23;20020;-76
2023/02/26 07:51:10;;;;;;;0.40;0.20;;;7.60;57.90;;;;;;6239917;23;20015;-78
2023/02/26 07:53:36;;;;;;;0.23;0.20;;;7.60;57.40;;;;;;6244602;23;20318;-78
2023/02/26 07:56:02;;;;;;;0.30;0.20;;;7.50;57.20;;;;;;6244898;23;20004;-78
2023/02/26 07:58:28;;;;;;;1.33;0.40;;;7.50;57.30;;;;;;6245234;23;20149;-79
2023/02/26 08:00:54;;;;;;;0.30;0.20;;;7.60;56.90;;;;;;6244896;23;20443;-77
2023/02/26 08:03:20;;;;;;;0.30;0.30;;;7.50;57.50;;;;;;6245220;23;20000;-78
2023/02/26 08:05:46;;;;;;;0.30;0.20;;;7.60;56.30;;;;;;6244843;23;20001;-77
2023/02/26 08:08:11;;;;;;;0.70;0.30;;;7.50;56.40;;;;;;6217927;23;20008;-78
2023/02/26 08:10:38;;;;;;;0.53;0.30;;;7.50;56.80;;;;;;6244717;23;20063;-79
2023/02/26 08:13:03;;;;;;;0.20;0.20;;;7.50;56.80;;;;;;6244780;23;20000;-79
2023/02/26 08:15:29;;;;;;;0.47;0.20;;;7.40;57.00;;;;;;6244337;23;20012;-78
2023/02/26 08:17:55;;;;;;;0.27;0.20;;;7.50;57.10;;;;;;6244495;23;20312;-77
2023/02/26 08:20:21;;;;;;;0.60;0.30;;;7.40;57.20;;;;;;6244925;23;20089;-73
2023/02/26 08:22:48;;;;;;;0.93;0.20;;;7.40;57.50;;;;;;6242763;23;20000;-74
2023/02/26 08:25:14;;;;;;;0.30;0.20;;;7.50;57.30;;;;;;6243990;23;20030;-74
2023/02/26 08:27:40;;;;;;;0.20;0.20;;;7.50;56.40;;;;;;6243859;23;20486;-71
2023/02/26 08:30:07;;;;;;;0.50;0.30;;;7.60;56.40;;;;;;6244524;23;20064;-71
2023/02/26 08:32:33;;;;;;;0.60;0.20;;;7.60;56.30;;;;;;6244736;23;20000;-74
2023/02/26 08:34:58;;;;;;;0.20;0.20;;;7.60;56.00;;;;;;6245237;23;20049;-74
2023/02/26 08:37:24;;;;;;;2.67;1.30;;;7.70;56.50;;;;;;6246729;23;20446;-74
2023/02/26 08:39:51;;;;;;;5.10;2.13;;;7.70;57.10;;;;;;6219729;23;20000;-72
2023/02/26 08:42:19;;;;;;;2.30;1.70;;;7.60;57.40;;;;;;6246719;23;20331;-77
2023/02/26 08:44:45;;;;;;;1.13;0.67;;;7.60;57.70;;;;;;6246854;23;20007;-71
2023/02/26 08:47:11;;;;;;;4.07;0.80;;;7.60;58.20;;;;;;6246830;22;20016;-78
2023/02/26 08:49:36;;;;;;;0.50;0.30;;;7.60;57.60;;;;;;6247165;23;20058;-72
2023/02/26 08:52:02;;;;;;;2.63;0.30;;;7.60;57.10;;;;;;6246050;23;20004;-77
2023/02/26 08:54:28;;;;;;;0.40;0.33;;;7.60;57.10;;;;;;6246077;23;19996;-72
2023/02/26 08:56:56;;;;;;;0.40;0.17;;;7.60;57.10;;;;;;6246359;23;20489;-78
2023/02/26 08:59:25;;;;;;;0.40;0.30;;;7.60;56.50;;;;;;6229659;22;20462;-75
2023/02/26 09:01:50;;;;;;;0.57;0.30;;;7.60;56.20;;;;;;6277192;22;20003;-78
2023/02/26 09:04:16;;;;;;;0.90;0.40;;;7.50;56.00;;;;;;6277146;22;20007;-73
2023/02/26 09:06:42;;;;;;;1.47;0.30;;;7.50;56.50;;;;;;6276954;22;20442;-75
2023/02/26 09:09:08;;;;;;;1.80;0.60;;;7.50;57.00;;;;;;6276977;22;20317;-71
2023/02/26 09:11:35;;;;;;;0.90;0.43;;;7.50;57.60;;;;;;6276496;22;20027;-78
2023/02/26 09:14:02;;;;;;;0.40;0.33;;;7.60;57.30;;;;;;6277441;22;20007;-78
2023/02/26 09:16:28;;;;;;;2.50;0.40;;;7.60;56.90;;;;;;6277590;22;20011;-74
2023/02/26 09:18:54;;;;;;;2.43;0.30;;;7.60;57.40;;;;;;6272957;22;20129;-75
2023/02/26 09:21:20;;;;;;;0.63;0.40;;;7.60;57.50;;;;;;6274229;22;20041;-76
2023/02/26 09:23:46;;;;;;;1.10;0.50;;;7.60;57.30;;;;;;6276087;22;20098;-74
2023/02/26 09:26:11;;;;;;;0.67;0.40;;;7.50;57.10;;;;;;6277527;22;20003;-75
2023/02/26 09:28:37;;;;;;;1.00;0.57;;;7.50;57.80;;;;;;6277822;22;20014;-75
2023/02/26 09:31:05;;;;;;;1.10;0.50;;;7.50;58.20;;;;;;6277544;22;20000;-75
2023/02/26 09:33:32;;;;;;;2.30;0.50;;;7.50;57.70;;;;;;6277295;22;20031;-73
2023/02/26 09:35:58;;;;;;;3.20;0.63;;;7.50;57.30;;;;;;6277318;22;19996;-75
2023/02/26 09:38:24;;;;;;;0.93;0.47;;;7.50;57.00;;;;;;6277143;22;20011;-75
2023/02/26 09:40:53;;;;;;;1.03;0.40;;;7.50;56.90;;;;;;6277324;22;20071;-75
2023/02/26 09:43:46;;;;;;;2.13;0.33;;;7.50;57.60;;;;;;6275443;22;20004;-77
2023/02/26 09:46:22;;;;;;;0.93;0.53;;;7.40;58.20;;;;;;6271562;22;20046;-74
2023/02/26 09:48:50;;;;;;;0.77;0.40;;;7.50;57.70;;;;;;6274104;22;20456;-75
2023/02/26 09:51:21;;;;;;;0.73;0.40;;;7.50;57.80;;;;;;6276941;22;19996;-75
2023/02/26 09:53:49;;;;;;;0.63;0.30;;;7.50;58.20;;;;;;6276952;22;20003;-75
2023/02/26 09:56:21;;;;;;;2.67;0.50;;;7.40;58.00;;;;;;6277228;22;20505;-74
2023/02/26 09:58:48;;;;;;;25.00;2.55;;;7.40;57.80;;;;;;6276146;22;20042;-75
2023/02/26 10:01:22;;;;;;;1.37;0.60;;;7.40;57.90;;;;;;6275380;22;20437;-75
2023/02/26 10:04:10;;;;;;;0.73;0.50;;;7.40;58.20;;;;;;6276998;22;20122;-73
2023/02/26 10:06:57;;;;;;;0.73;0.43;;;7.40;58.20;;;;;;6276543;22;20014;-73
2023/02/26 10:09:40;;;;;;;1.17;0.60;;;7.50;57.50;;;;;;6276856;22;20000;-73
2023/02/26 10:12:15;;;;;;;0.70;0.50;;;7.40;57.30;;;;;;6277028;22;20003;-72
2023/02/26 10:15:18;;;;;;;3.50;0.50;;;7.40;57.90;;;;;;6277007;22;20003;-73
2023/02/26 10:18:04;;;;;;;1.33;0.73;;;7.40;58.20;;;;;;6263522;22;20097;-73
2023/02/26 10:20:54;;;;;;;1.10;0.60;;;7.40;58.40;;;;;;6276447;22;20000;-71
2023/02/26 10:23:50;;;;;;;1.00;0.50;;;7.40;58.50;;;;;;6276551;22;20000;-72
2023/02/26 10:26:22;;;;;;;1.07;0.47;;;7.40;58.40;;;;;;6277081;22;20012;-72
2023/02/26 10:29:01;;;;;;;0.67;0.50;;;7.40;58.10;;;;;;6274803;22;20434;-77
2023/02/26 10:31:35;;;;;;;0.70;0.40;;;7.40;58.00;;;;;;6276996;22;19999;-73
2023/02/26 10:34:19;;;;;;;1.20;0.50;;;7.40;57.40;;;;;;6276875;22;20006;-72
2023/02/26 10:37:06;;;;;;;0.43;0.40;;;7.40;58.00;;;;;;6276221;22;20007;-73
2023/02/26 10:39:42;;;;;;;1.27;0.93;;;7.40;57.80;;;;;;6276526;22;20004;-74
2023/02/26 10:42:18;;;;;;;0.70;0.50;;;7.40;57.40;;;;;;6276928;22;20007;-73
2023/02/26 10:45:07;;;;;;;3.00;0.80;;;7.40;57.10;;;;;;6276419;22;20054;-73
2023/02/26 10:47:59;;;;;;;2.13;1.00;;;7.50;57.70;;;;;;6276555;22;20022;-74
2023/02/26 10:50:26;;;;;;;2.10;0.60;;;7.50;57.60;;;;;;6276412;22;20075;-75
2023/02/26 10:52:53;;;;;;;2.20;0.80;;;7.50;57.60;;;;;;6276658;22;20000;-73
2023/02/26 10:55:42;;;;;;;0.90;0.40;;;7.50;57.70;;;;;;6276587;22;20050;-72
2023/02/26 10:58:28;;;;;;;0.60;0.43;;;7.50;58.10;;;;;;6276075;22;20003;-72
2023/02/26 11:00:55;;;;;;;0.60;0.50;;;7.50;57.60;;;;;;6275810;22;20034;-73
2023/02/26 11:03:37;;;;;;;0.60;0.40;;;7.60;57.00;;;;;;6276365;22;19999;-73
2023/02/26 11:06:05;;;;;;;0.93;0.40;;;7.60;56.40;;;;;;6276034;22;20003;-73
2023/02/26 11:08:39;;;;;;;1.27;0.60;;;7.60;56.30;;;;;;6276987;22;20004;-74
2023/02/26 11:11:05;;;;;;;1.23;0.60;;;7.60;56.30;;;;;;6276134;22;20057;-71
2023/02/26 11:13:35;;;;;;;1.10;0.77;;;7.60;56.60;;;;;;6276140;22;19996;-73
2023/02/26 11:16:05;;;;;;;0.97;0.60;;;7.60;56.90;;;;;;6276492;22;20365;-73
2023/02/26 11:18:57;;;;;;;0.80;0.53;;;7.60;56.30;;;;;;6276475;22;20062;-73
2023/02/26 11:21:29;;;;;;;3.67;0.60;;;7.60;56.20;;;;;;6275924;22;20080;-73
2023/02/26 11:24:05;;;;;;;0.77;0.60;;;7.60;57.20;;;;;;6274726;22;20082;-73
2023/02/26 11:26:35;;;;;;;1.03;0.70;;;7.50;57.20;;;;;;6276424;22;20077;-73
2023/02/26 11:29:01;;;;;;;0.90;0.60;;;7.50;57.40;;;;;;6275512;22;20070;-74
2023/02/26 11:31:27;;;;;;;1.40;0.80;;;7.60;57.10;;;;;;6271005;22;20035;-74
2023/02/26 11:34:03;;;;;;;3.57;0.60;;;7.60;56.50;;;;;;6273146;22;20038;-74
2023/02/26 11:36:31;;;;;;;2.33;0.70;;;7.60;56.00;;;;;;6274422;22;20007;-73
2023/02/26 11:39:04;;;;;;;2.27;1.20;;;7.60;55.80;;;;;;6276056;22;20073;-73
2023/02/26 11:41:34;;;;;;;0.80;0.60;;;7.60;56.50;;;;;;6276150;22;20000;-73
2023/02/26 11:44:05;;;;;;;1.50;0.80;;;7.60;57.10;;;;;;6276333;22;20438;-73
2023/02/26 11:46:41;;;;;;;1.27;0.87;;;7.60;57.20;;;;;;6276536;22;20341;-73
2023/02/26 11:49:11;;;;;;;2.33;1.00;;;7.60;56.90;;;;;;6276212;22;20073;-73
2023/02/26 11:51:36;;;;;;;1.10;0.77;;;7.60;56.40;;;;;;6276149;22;20069;-72
2023/02/26 11:54:02;;;;;;;1.87;0.80;;;7.60;55.90;;;;;;6275975;22;20434;-72
2023/02/26 11:56:40;;;;;;;1.93;0.90;;;7.60;56.30;;;;;;6276462;22;20011;-73
2023/02/26 11:59:23;;;;;;;1.20;0.80;;;7.60;57.10;;;;;;6273292;22;20003;-73
2023/02/26 12:01:51;;;;;;;1.20;1.00;;;7.50;55.80;;;;;;6272997;22;20088;-72
2023/02/26 12:04:22;;;;;;;2.00;0.80;;;7.60;54.60;;;;;;6275539;22;20077;-73
2023/02/26 12:06:50;;;;;;;7.70;0.90;;;7.50;54.10;;;;;;6276412;22;20106;-73
2023/02/26 12:09:17;;;;;;;1.53;0.93;;;7.40;54.70;;;;;;6274933;22;20326;-72
2023/02/26 12:11:50;;;;;;;2.13;0.90;;;7.40;55.30;;;;;;6275798;22;20762;-74
2023/02/26 12:14:20;;;;;;;1.77;1.20;;;7.40;55.30;;;;;;6276352;22;20033;-73
2023/02/26 12:17:01;;;;;;;1.43;1.03;;;7.40;55.90;;;;;;6279128;22;20006;-72
2023/02/26 12:19:41;;;;;;;1.13;0.70;;;7.40;54.40;;;;;;6279701;22;20000;-73
2023/02/26 12:22:16;;;;;;;1.57;0.93;;;7.40;54.80;;;;;;6279489;22;19999;-73
2023/02/26 12:24:59;;;;;;;1.47;0.93;;;7.30;55.40;;;;;;6278950;22;19996;-72
2023/02/26 12:27:40;;;;;;;3.10;1.20;;;7.20;55.90;;;;;;6279214;22;20432;-72
2023/02/26 12:30:24;;;;;;;1.47;0.93;;;7.20;56.40;;;;;;6279458;22;19995;-73
2023/02/26 12:33:28;;;;;;;1.23;0.80;;;7.20;55.80;;;;;;6279355;22;20426;-72
2023/02/26 12:36:15;;;;;;;1.80;0.90;;;7.20;55.00;;;;;;6265426;22;21096;-73
2023/02/26 12:39:00;;;;;;;1.93;1.10;;;7.10;55.90;;;;;;6278828;22;20007;-73
2023/02/26 12:41:41;;;;;;;2.50;1.00;;;7.10;55.70;;;;;;6279146;22;20042;-72
2023/02/26 12:44:36;;;;;;;2.10;0.97;;;7.10;55.80;;;;;;6279152;22;20426;-72
2023/02/26 12:47:10;;;;;;;1.37;0.90;;;7.10;56.30;;;;;;6277036;22;20027;-74
2023/02/26 12:49:48;;;;;;;1.70;1.10;;;7.10;54.60;;;;;;6277603;22;19996;-72
2023/02/26 12:52:20;;;;;;;1.17;0.80;;;7.10;55.60;;;;;;6277946;22;20443;-73
2023/02/26 12:55:03;;;;;;;1.83;1.20;;;7.10;56.30;;;;;;6279087;22;20326;-72
2023/02/26 12:57:45;;;;;;;;;;;7.10;56.20;;;;;;6279844;22;20007;-73
2023/02/26 13:00:33;;;;;;;3.40;1.20;;;7.10;56.70;;;;;;6277789;22;19905;-73
2023/02/26 13:03:14;;;;;;;7.07;1.10;;;7.10;57.00;;;;;;6278528;22;20288;-73
2023/02/26 13:06:15;;;;;;;1.90;1.10;;;7.20;55.90;;;;;;6278994;22;20496;-73
2023/02/26 13:09:09;;;;;;;2.50;1.03;;;7.20;55.30;;;;;;6278614;22;20012;-74
2023/02/26 13:12:26;;;;;;;3.30;1.13;;;7.20;55.80;;;;;;6278788;22;20000;-74
2023/02/26 13:15:18;;;;;;;1.40;0.90;;;7.20;56.30;;;;;;6244072;22;20008;-73
2023/02/26 13:18:00;;;;;;;1.30;1.03;;;7.20;56.00;;;;;;6278921;22;20006;-72
2023/02/26 13:20:27;;;;;;;2.25;1.30;;;7.10;56.00;;;;;;6278293;22;20003;-73
2023/02/26 13:23:00;;;;;;;2.23;1.30;;;7.20;56.80;;;;;;6277141;22;19999;-70